sensor_id;sensor_type;location;lat;lon;timestamp;P1;durP1;ratioP1;P2;durP2;ratioP2
14613;SDS011;7393;51.446;6.800;2023-09-19T00:02:20;10.83;;;2.40;;
14613;SDS011;7393;51.446;6.800;2023-09-19T00:04:48;6.57;;;1.97;;
14613;SDS011;7393;51.446;6.800;2023-09-19T00:07:17;7.67;;;1.93;;
14613;SDS011;7393;51.446;6.800;2023-09-19T00:09:44;7.90;;;2.10;;
14613;SDS011;7393;51.446;6.800;2023-09-19T00:12:11;7.30;;;2.13;;
14613;SDS011;7393;51.446;6.800;2023-09-19T00:14:38;10.20;;;2.17;;
14613;SDS011;7393;51.446;6.800;2023-09-19T00:17:05;6.83;;;2.00;;
14613;SDS011;7393;51.446;6.800;2023-09-19T00:19:33;8.53;;;2.27;;
14613;SDS011;7393;51.446;6.800;2023-09-19T00:22:01;7.00;;;1.93;;
14613;SDS011;7393;51.446;6.800;2023-09-19T00:24:28;5.53;;;2.07;;
14613;SDS011;7393;51.446;6.800;2023-09-19T00:26:55;6.77;;;2.50;;
14613;SDS011;7393;51.446;6.800;2023-09-19T00:29:24;6.70;;;2.00;;
14613;SDS011;7393;51.446;6.800;2023-09-19T00:31:54;7.23;;;2.10;;
14613;SDS011;7393;51.446;6.800;2023-09-19T00:34:21;6.67;;;2.37;;
14613;SDS011;7393;51.446;6.800;2023-09-19T00:36:48;12.13;;;3.30;;
14613;SDS011;7393;51.446;6.800;2023-09-19T00:39:19;11.23;;;2.40;;
14613;SDS011;7393;51.446;6.800;2023-09-19T00:41:47;13.73;;;2.97;;
14613;SDS011;7393;51.446;6.800;2023-09-19T00:44:14;9.27;;;2.30;;
14613;SDS011;7393;51.446;6.800;2023-09-19T00:46:41;6.27;;;2.30;;
14613;SDS011;7393;51.446;6.800;2023-09-19T00:49:08;6.13;;;2.20;;
14613;SDS011;7393;51.446;6.800;2023-09-19T00:51:37;8.00;;;2.27;;
14613;SDS011;7393;51.446;6.800;2023-09-19T00:54:10;6.97;;;2.13;;
14613;SDS011;7393;51.446;6.800;2023-09-19T00:56:44;8.97;;;2.00;;
14613;SDS011;7393;51.446;6.800;2023-09-19T00:59:14;5.63;;;2.17;;
14613;SDS011;7393;51.446;6.800;2023-09-19T01:01:41;10.77;;;2.57;;
14613;SDS011;7393;51.446;6.800;2023-09-19T01:04:10;7.43;;;2.20;;
14613;SDS011;7393;51.446;6.800;2023-09-19T01:06:37;8.40;;;2.30;;
14613;SDS011;7393;51.446;6.800;2023-09-19T01:09:05;5.03;;;2.20;;
14613;SDS011;7393;51.446;6.800;2023-09-19T01:11:33;9.90;;;2.40;;
14613;SDS011;7393;51.446;6.800;2023-09-19T01:14:11;11.57;;;2.57;;
14613;SDS011;7393;51.446;6.800;2023-09-19T01:16:48;12.63;;;2.57;;
14613;SDS011;7393;51.446;6.800;2023-09-19T01:19:35;11.90;;;2.37;;
14613;SDS011;7393;51.446;6.800;2023-09-19T01:22:29;8.97;;;2.30;;
14613;SDS011;7393;51.446;6.800;2023-09-19T01:28:15;6.80;;;2.27;;
14613;SDS011;7393;51.446;6.800;2023-09-19T01:30:56;5.67;;;2.07;;
14613;SDS011;7393;51.446;6.800;2023-09-19T01:33:25;10.47;;;2.90;;
14613;SDS011;7393;51.446;6.800;2023-09-19T01:35:52;10.77;;;2.50;;
14613;SDS011;7393;51.446;6.800;2023-09-19T01:38:22;5.60;;;2.37;;
14613;SDS011;7393;51.446;6.800;2023-09-19T01:40:52;8.03;;;2.60;;
14613;SDS011;7393;51.446;6.800;2023-09-19T01:43:30;9.37;;;2.20;;
14613;SDS011;7393;51.446;6.800;2023-09-19T01:46:03;8.33;;;2.40;;
14613;SDS011;7393;51.446;6.800;2023-09-19T01:48:35;8.93;;;2.40;;
14613;SDS011;7393;51.446;6.800;2023-09-19T01:51:09;8.60;;;2.40;;
14613;SDS011;7393;51.446;6.800;2023-09-19T01:53:40;7.37;;;2.10;;
14613;SDS011;7393;51.446;6.800;2023-09-19T01:56:12;8.20;;;2.40;;
14613;SDS011;7393;51.446;6.800;2023-09-19T01:58:51;9.83;;;2.80;;
14613;SDS011;7393;51.446;6.800;2023-09-19T02:01:24;9.90;;;2.63;;
14613;SDS011;7393;51.446;6.800;2023-09-19T02:03:52;9.47;;;2.40;;
14613;SDS011;7393;51.446;6.800;2023-09-19T02:06:21;7.00;;;2.47;;
14613;SDS011;7393;51.446;6.800;2023-09-19T02:08:50;8.97;;;2.20;;
14613;SDS011;7393;51.446;6.800;2023-09-19T02:11:17;7.90;;;2.13;;
14613;SDS011;7393;51.446;6.800;2023-09-19T02:13:43;5.60;;;2.17;;
14613;SDS011;7393;51.446;6.800;2023-09-19T02:16:10;7.17;;;2.73;;
14613;SDS011;7393;51.446;6.800;2023-09-19T02:18:39;10.17;;;2.60;;
14613;SDS011;7393;51.446;6.800;2023-09-19T02:21:05;10.73;;;2.93;;
14613;SDS011;7393;51.446;6.800;2023-09-19T02:23:34;8.97;;;2.40;;
14613;SDS011;7393;51.446;6.800;2023-09-19T02:26:01;8.70;;;3.17;;
14613;SDS011;7393;51.446;6.800;2023-09-19T02:28:28;7.63;;;2.30;;
14613;SDS011;7393;51.446;6.800;2023-09-19T02:30:58;9.43;;;2.57;;
14613;SDS011;7393;51.446;6.800;2023-09-19T02:33:25;10.20;;;2.90;;
14613;SDS011;7393;51.446;6.800;2023-09-19T02:35:55;9.10;;;2.50;;
14613;SDS011;7393;51.446;6.800;2023-09-19T02:38:23;10.57;;;2.83;;
14613;SDS011;7393;51.446;6.800;2023-09-19T02:40:51;11.80;;;2.67;;
14613;SDS011;7393;51.446;6.800;2023-09-19T02:43:18;7.53;;;2.70;;
14613;SDS011;7393;51.446;6.800;2023-09-19T02:45:45;8.03;;;2.47;;
14613;SDS011;7393;51.446;6.800;2023-09-19T02:48:14;10.87;;;2.30;;
14613;SDS011;7393;51.446;6.800;2023-09-19T02:50:41;9.30;;;2.93;;
14613;SDS011;7393;51.446;6.800;2023-09-19T02:53:10;9.97;;;2.43;;
14613;SDS011;7393;51.446;6.800;2023-09-19T02:55:39;9.50;;;2.47;;
14613;SDS011;7393;51.446;6.800;2023-09-19T02:58:06;11.80;;;2.63;;
14613;SDS011;7393;51.446;6.800;2023-09-19T03:00:36;11.30;;;2.70;;
14613;SDS011;7393;51.446;6.800;2023-09-19T03:03:03;7.77;;;2.60;;
14613;SDS011;7393;51.446;6.800;2023-09-19T03:05:31;7.73;;;2.40;;
14613;SDS011;7393;51.446;6.800;2023-09-19T03:07:58;7.57;;;2.50;;
14613;SDS011;7393;51.446;6.800;2023-09-19T03:10:28;10.63;;;2.57;;
14613;SDS011;7393;51.446;6.800;2023-09-19T03:12:56;11.87;;;2.57;;
14613;SDS011;7393;51.446;6.800;2023-09-19T03:15:23;8.63;;;2.60;;
14613;SDS011;7393;51.446;6.800;2023-09-19T03:17:49;7.10;;;2.30;;
14613;SDS011;7393;51.446;6.800;2023-09-19T03:20:18;7.50;;;2.13;;
14613;SDS011;7393;51.446;6.800;2023-09-19T03:22:46;6.87;;;2.70;;
14613;SDS011;7393;51.446;6.800;2023-09-19T03:25:13;5.97;;;2.47;;
14613;SDS011;7393;51.446;6.800;2023-09-19T03:27:41;7.17;;;2.23;;
14613;SDS011;7393;51.446;6.800;2023-09-19T03:30:08;4.73;;;2.40;;
14613;SDS011;7393;51.446;6.800;2023-09-19T03:32:43;10.33;;;2.43;;
14613;SDS011;7393;51.446;6.800;2023-09-19T03:35:11;7.23;;;2.53;;
14613;SDS011;7393;51.446;6.800;2023-09-19T03:37:39;8.17;;;2.10;;
14613;SDS011;7393;51.446;6.800;2023-09-19T03:40:06;9.43;;;2.20;;
14613;SDS011;7393;51.446;6.800;2023-09-19T03:42:37;9.77;;;2.73;;
14613;SDS011;7393;51.446;6.800;2023-09-19T03:45:06;7.47;;;2.30;;
14613;SDS011;7393;51.446;6.800;2023-09-19T03:47:37;8.23;;;2.03;;
14613;SDS011;7393;51.446;6.800;2023-09-19T03:50:04;7.10;;;2.20;;
14613;SDS011;7393;51.446;6.800;2023-09-19T03:52:33;8.53;;;2.20;;
14613;SDS011;7393;51.446;6.800;2023-09-19T03:55:00;7.83;;;2.57;;
14613;SDS011;7393;51.446;6.800;2023-09-19T03:57:27;6.10;;;2.40;;
14613;SDS011;7393;51.446;6.800;2023-09-19T03:59:54;6.60;;;2.27;;
14613;SDS011;7393;51.446;6.800;2023-09-19T04:02:22;8.70;;;2.10;;
14613;SDS011;7393;51.446;6.800;2023-09-19T04:04:50;7.23;;;2.27;;
14613;SDS011;7393;51.446;6.800;2023-09-19T04:07:17;9.80;;;2.20;;
14613;SDS011;7393;51.446;6.800;2023-09-19T04:09:47;9.43;;;2.60;;
14613;SDS011;7393;51.446;6.800;2023-09-19T04:12:14;11.23;;;2.50;;
14613;SDS011;7393;51.446;6.800;2023-09-19T04:14:42;7.27;;;2.40;;
14613;SDS011;7393;51.446;6.800;2023-09-19T04:17:08;8.90;;;2.17;;
14613;SDS011;7393;51.446;6.800;2023-09-19T04:19:37;6.90;;;2.50;;
14613;SDS011;7393;51.446;6.800;2023-09-19T04:22:05;8.67;;;2.30;;
14613;SDS011;7393;51.446;6.800;2023-09-19T04:24:32;8.23;;;2.00;;
14613;SDS011;7393;51.446;6.800;2023-09-19T04:26:59;6.23;;;1.90;;
14613;SDS011;7393;51.446;6.800;2023-09-19T04:29:26;6.90;;;1.90;;
14613;SDS011;7393;51.446;6.800;2023-09-19T04:31:54;8.03;;;2.40;;
14613;SDS011;7393;51.446;6.800;2023-09-19T04:34:21;9.07;;;2.87;;
14613;SDS011;7393;51.446;6.800;2023-09-19T04:36:50;7.37;;;2.33;;
14613;SDS011;7393;51.446;6.800;2023-09-19T04:39:17;8.70;;;2.77;;
14613;SDS011;7393;51.446;6.800;2023-09-19T04:41:46;6.57;;;2.20;;
14613;SDS011;7393;51.446;6.800;2023-09-19T04:44:13;11.23;;;2.70;;
14613;SDS011;7393;51.446;6.800;2023-09-19T04:46:40;9.27;;;2.40;;
14613;SDS011;7393;51.446;6.800;2023-09-19T04:49:07;8.77;;;2.23;;
14613;SDS011;7393;51.446;6.800;2023-09-19T04:51:34;6.73;;;2.33;;
14613;SDS011;7393;51.446;6.800;2023-09-19T04:54:02;8.57;;;2.67;;
14613;SDS011;7393;51.446;6.800;2023-09-19T04:56:29;12.43;;;2.70;;
14613;SDS011;7393;51.446;6.800;2023-09-19T04:58:57;7.33;;;2.30;;
14613;SDS011;7393;51.446;6.800;2023-09-19T05:01:24;8.10;;;2.60;;
14613;SDS011;7393;51.446;6.800;2023-09-19T05:03:51;10.03;;;2.80;;
14613;SDS011;7393;51.446;6.800;2023-09-19T05:06:18;7.17;;;2.17;;
14613;SDS011;7393;51.446;6.800;2023-09-19T05:08:46;11.80;;;2.80;;
14613;SDS011;7393;51.446;6.800;2023-09-19T05:11:17;8.07;;;2.30;;
14613;SDS011;7393;51.446;6.800;2023-09-19T05:13:44;8.27;;;2.20;;
14613;SDS011;7393;51.446;6.800;2023-09-19T05:16:11;11.80;;;2.73;;
14613;SDS011;7393;51.446;6.800;2023-09-19T05:18:38;6.67;;;2.50;;
14613;SDS011;7393;51.446;6.800;2023-09-19T05:21:04;9.13;;;2.63;;
14613;SDS011;7393;51.446;6.800;2023-09-19T05:23:32;9.13;;;2.30;;
14613;SDS011;7393;51.446;6.800;2023-09-19T05:25:59;8.27;;;2.53;;
14613;SDS011;7393;51.446;6.800;2023-09-19T05:28:27;15.60;;;3.17;;
14613;SDS011;7393;51.446;6.800;2023-09-19T05:30:54;6.80;;;2.30;;
14613;SDS011;7393;51.446;6.800;2023-09-19T05:33:21;10.57;;;2.90;;
14613;SDS011;7393;51.446;6.800;2023-09-19T05:35:49;9.83;;;2.90;;
14613;SDS011;7393;51.446;6.800;2023-09-19T05:38:15;7.93;;;2.47;;
14613;SDS011;7393;51.446;6.800;2023-09-19T05:40:44;12.10;;;2.50;;
14613;SDS011;7393;51.446;6.800;2023-09-19T05:43:11;7.80;;;2.53;;
14613;SDS011;7393;51.446;6.800;2023-09-19T05:45:40;9.30;;;2.80;;
14613;SDS011;7393;51.446;6.800;2023-09-19T05:48:08;10.57;;;3.10;;
14613;SDS011;7393;51.446;6.800;2023-09-19T05:50:36;11.57;;;2.80;;
14613;SDS011;7393;51.446;6.800;2023-09-19T05:53:03;14.60;;;2.57;;
14613;SDS011;7393;51.446;6.800;2023-09-19T05:55:30;13.50;;;3.00;;
14613;SDS011;7393;51.446;6.800;2023-09-19T05:57:57;12.40;;;2.93;;
14613;SDS011;7393;51.446;6.800;2023-09-19T06:00:25;11.83;;;2.57;;
14613;SDS011;7393;51.446;6.800;2023-09-19T06:02:54;11.93;;;2.70;;
14613;SDS011;7393;51.446;6.800;2023-09-19T06:05:23;8.87;;;2.70;;
14613;SDS011;7393;51.446;6.800;2023-09-19T06:07:51;12.97;;;3.33;;
14613;SDS011;7393;51.446;6.800;2023-09-19T06:10:19;12.10;;;2.80;;
14613;SDS011;7393;51.446;6.800;2023-09-19T06:12:48;8.97;;;2.40;;
14613;SDS011;7393;51.446;6.800;2023-09-19T06:15:15;9.23;;;2.60;;
14613;SDS011;7393;51.446;6.800;2023-09-19T06:17:46;9.60;;;3.00;;
14613;SDS011;7393;51.446;6.800;2023-09-19T06:20:15;11.53;;;3.10;;
14613;SDS011;7393;51.446;6.800;2023-09-19T06:22:43;8.50;;;2.57;;
14613;SDS011;7393;51.446;6.800;2023-09-19T06:25:12;8.10;;;2.60;;
14613;SDS011;7393;51.446;6.800;2023-09-19T06:27:42;8.97;;;2.60;;
14613;SDS011;7393;51.446;6.800;2023-09-19T06:30:10;9.33;;;2.73;;
14613;SDS011;7393;51.446;6.800;2023-09-19T06:32:38;12.20;;;2.90;;
14613;SDS011;7393;51.446;6.800;2023-09-19T06:35:05;10.93;;;2.50;;
14613;SDS011;7393;51.446;6.800;2023-09-19T06:37:36;10.90;;;2.37;;
14613;SDS011;7393;51.446;6.800;2023-09-19T06:40:04;10.07;;;2.53;;
14613;SDS011;7393;51.446;6.800;2023-09-19T06:42:33;5.43;;;2.07;;
14613;SDS011;7393;51.446;6.800;2023-09-19T06:45:02;9.13;;;2.50;;
14613;SDS011;7393;51.446;6.800;2023-09-19T06:47:29;8.73;;;2.63;;
14613;SDS011;7393;51.446;6.800;2023-09-19T06:49:56;6.07;;;2.70;;
14613;SDS011;7393;51.446;6.800;2023-09-19T06:52:23;11.87;;;3.20;;
14613;SDS011;7393;51.446;6.800;2023-09-19T06:54:54;6.83;;;2.30;;
14613;SDS011;7393;51.446;6.800;2023-09-19T06:57:22;11.90;;;2.60;;
14613;SDS011;7393;51.446;6.800;2023-09-19T06:59:49;7.87;;;2.23;;
14613;SDS011;7393;51.446;6.800;2023-09-19T07:02:16;9.60;;;2.60;;
14613;SDS011;7393;51.446;6.800;2023-09-19T07:04:43;9.80;;;2.27;;
14613;SDS011;7393;51.446;6.800;2023-09-19T07:07:10;12.03;;;2.93;;
14613;SDS011;7393;51.446;6.800;2023-09-19T07:09:39;12.67;;;2.83;;
14613;SDS011;7393;51.446;6.800;2023-09-19T07:12:08;8.40;;;2.30;;
14613;SDS011;7393;51.446;6.800;2023-09-19T07:14:37;10.83;;;3.10;;
14613;SDS011;7393;51.446;6.800;2023-09-19T07:17:03;17.67;;;3.00;;
14613;SDS011;7393;51.446;6.800;2023-09-19T07:19:30;14.63;;;2.90;;
14613;SDS011;7393;51.446;6.800;2023-09-19T07:21:57;7.63;;;2.53;;
14613;SDS011;7393;51.446;6.800;2023-09-19T07:24:27;10.87;;;2.80;;
14613;SDS011;7393;51.446;6.800;2023-09-19T07:26:54;11.07;;;3.17;;
14613;SDS011;7393;51.446;6.800;2023-09-19T07:29:22;9.10;;;3.07;;
14613;SDS011;7393;51.446;6.800;2023-09-19T07:31:51;12.53;;;4.17;;
14613;SDS011;7393;51.446;6.800;2023-09-19T07:34:18;13.00;;;2.90;;
14613;SDS011;7393;51.446;6.800;2023-09-19T07:36:45;12.20;;;3.10;;
14613;SDS011;7393;51.446;6.800;2023-09-19T07:39:12;13.93;;;3.30;;
14613;SDS011;7393;51.446;6.800;2023-09-19T07:41:39;10.67;;;3.23;;
14613;SDS011;7393;51.446;6.800;2023-09-19T07:44:07;10.37;;;2.30;;
14613;SDS011;7393;51.446;6.800;2023-09-19T07:46:36;10.67;;;3.00;;
14613;SDS011;7393;51.446;6.800;2023-09-19T07:49:03;11.00;;;2.67;;
14613;SDS011;7393;51.446;6.800;2023-09-19T07:51:30;10.07;;;2.67;;
14613;SDS011;7393;51.446;6.800;2023-09-19T07:53:58;13.80;;;2.87;;
14613;SDS011;7393;51.446;6.800;2023-09-19T07:56:24;6.80;;;2.20;;
14613;SDS011;7393;51.446;6.800;2023-09-19T07:58:52;10.10;;;2.60;;
14613;SDS011;7393;51.446;6.800;2023-09-19T08:01:19;8.90;;;2.57;;
14613;SDS011;7393;51.446;6.800;2023-09-19T08:03:50;6.90;;;2.23;;
14613;SDS011;7393;51.446;6.800;2023-09-19T08:06:17;15.17;;;3.13;;
14613;SDS011;7393;51.446;6.800;2023-09-19T08:08:44;4.97;;;2.33;;
14613;SDS011;7393;51.446;6.800;2023-09-19T08:11:10;7.13;;;2.20;;
14613;SDS011;7393;51.446;6.800;2023-09-19T08:13:38;7.60;;;2.93;;
14613;SDS011;7393;51.446;6.800;2023-09-19T08:16:08;8.97;;;2.47;;
14613;SDS011;7393;51.446;6.800;2023-09-19T08:18:35;6.57;;;2.40;;
14613;SDS011;7393;51.446;6.800;2023-09-19T08:21:03;9.63;;;2.27;;
14613;SDS011;7393;51.446;6.800;2023-09-19T08:23:31;11.27;;;2.73;;
14613;SDS011;7393;51.446;6.800;2023-09-19T08:25:58;11.83;;;2.67;;
14613;SDS011;7393;51.446;6.800;2023-09-19T08:28:28;8.37;;;2.20;;
14613;SDS011;7393;51.446;6.800;2023-09-19T08:30:55;8.30;;;2.57;;
14613;SDS011;7393;51.446;6.800;2023-09-19T08:33:23;10.03;;;2.70;;
14613;SDS011;7393;51.446;6.800;2023-09-19T08:35:49;5.83;;;2.33;;
14613;SDS011;7393;51.446;6.800;2023-09-19T08:38:18;10.40;;;3.40;;
14613;SDS011;7393;51.446;6.800;2023-09-19T08:40:45;10.47;;;2.63;;
14613;SDS011;7393;51.446;6.800;2023-09-19T08:43:12;9.00;;;2.17;;
14613;SDS011;7393;51.446;6.800;2023-09-19T08:45:39;13.83;;;3.30;;
14613;SDS011;7393;51.446;6.800;2023-09-19T08:48:10;11.17;;;2.63;;
14613;SDS011;7393;51.446;6.800;2023-09-19T08:50:47;14.53;;;2.73;;
14613;SDS011;7393;51.446;6.800;2023-09-19T08:53:21;8.03;;;2.67;;
14613;SDS011;7393;51.446;6.800;2023-09-19T08:55:54;9.23;;;2.30;;
14613;SDS011;7393;51.446;6.800;2023-09-19T08:58:22;9.80;;;3.33;;
14613;SDS011;7393;51.446;6.800;2023-09-19T09:00:54;14.43;;;3.37;;
14613;SDS011;7393;51.446;6.800;2023-09-19T09:03:26;7.83;;;2.83;;
14613;SDS011;7393;51.446;6.800;2023-09-19T09:05:57;10.57;;;2.50;;
14613;SDS011;7393;51.446;6.800;2023-09-19T09:08:26;8.60;;;2.00;;
14613;SDS011;7393;51.446;6.800;2023-09-19T09:10:54;10.13;;;2.73;;
14613;SDS011;7393;51.446;6.800;2023-09-19T09:13:22;12.67;;;2.60;;
14613;SDS011;7393;51.446;6.800;2023-09-19T09:15:51;14.93;;;2.73;;
14613;SDS011;7393;51.446;6.800;2023-09-19T09:18:19;10.97;;;2.33;;
14613;SDS011;7393;51.446;6.800;2023-09-19T09:20:45;12.90;;;2.40;;
14613;SDS011;7393;51.446;6.800;2023-09-19T09:23:13;9.73;;;2.47;;
14613;SDS011;7393;51.446;6.800;2023-09-19T09:25:48;11.43;;;2.60;;
14613;SDS011;7393;51.446;6.800;2023-09-19T09:28:20;8.50;;;2.37;;
14613;SDS011;7393;51.446;6.800;2023-09-19T09:30:48;9.47;;;2.37;;
14613;SDS011;7393;51.446;6.800;2023-09-19T09:33:16;6.97;;;2.33;;
14613;SDS011;7393;51.446;6.800;2023-09-19T09:35:47;7.43;;;2.43;;
14613;SDS011;7393;51.446;6.800;2023-09-19T09:38:19;10.27;;;2.17;;
14613;SDS011;7393;51.446;6.800;2023-09-19T09:40:47;7.20;;;2.43;;
14613;SDS011;7393;51.446;6.800;2023-09-19T09:43:27;14.63;;;2.33;;
14613;SDS011;7393;51.446;6.800;2023-09-19T09:46:09;9.57;;;2.23;;
14613;SDS011;7393;51.446;6.800;2023-09-19T09:48:55;9.07;;;2.87;;
14613;SDS011;7393;51.446;6.800;2023-09-19T09:51:51;9.23;;;2.43;;
14613;SDS011;7393;51.446;6.800;2023-09-19T09:54:30;13.60;;;2.20;;
14613;SDS011;7393;51.446;6.800;2023-09-19T09:57:03;11.30;;;2.90;;
14613;SDS011;7393;51.446;6.800;2023-09-19T09:59:45;9.40;;;2.43;;
14613;SDS011;7393;51.446;6.800;2023-09-19T10:02:13;9.43;;;2.70;;
14613;SDS011;7393;51.446;6.800;2023-09-19T10:04:45;11.70;;;2.70;;
14613;SDS011;7393;51.446;6.800;2023-09-19T10:07:28;13.70;;;3.77;;
14613;SDS011;7393;51.446;6.800;2023-09-19T10:10:03;8.10;;;2.70;;
14613;SDS011;7393;51.446;6.800;2023-09-19T10:12:41;9.43;;;2.67;;
14613;SDS011;7393;51.446;6.800;2023-09-19T10:15:11;12.20;;;3.17;;
14613;SDS011;7393;51.446;6.800;2023-09-19T10:17:40;12.20;;;2.97;;
14613;SDS011;7393;51.446;6.800;2023-09-19T10:20:12;11.40;;;3.10;;
14613;SDS011;7393;51.446;6.800;2023-09-19T10:22:53;9.90;;;3.20;;
14613;SDS011;7393;51.446;6.800;2023-09-19T10:25:24;9.17;;;2.70;;
14613;SDS011;7393;51.446;6.800;2023-09-19T10:27:53;9.00;;;2.87;;
14613;SDS011;7393;51.446;6.800;2023-09-19T10:30:22;7.23;;;2.23;;
14613;SDS011;7393;51.446;6.800;2023-09-19T10:32:59;12.87;;;2.80;;
14613;SDS011;7393;51.446;6.800;2023-09-19T10:35:27;12.33;;;2.80;;
14613;SDS011;7393;51.446;6.800;2023-09-19T10:37:56;12.90;;;2.50;;
14613;SDS011;7393;51.446;6.800;2023-09-19T10:40:26;7.50;;;2.47;;
14613;SDS011;7393;51.446;6.800;2023-09-19T10:43:00;10.40;;;2.27;;
14613;SDS011;7393;51.446;6.800;2023-09-19T10:45:30;8.00;;;1.90;;
14613;SDS011;7393;51.446;6.800;2023-09-19T10:47:58;6.70;;;2.20;;
14613;SDS011;7393;51.446;6.800;2023-09-19T10:50:27;10.23;;;2.63;;
14613;SDS011;7393;51.446;6.800;2023-09-19T10:52:59;8.70;;;2.30;;
14613;SDS011;7393;51.446;6.800;2023-09-19T10:55:30;18.20;;;2.43;;
14613;SDS011;7393;51.446;6.800;2023-09-19T10:57:58;8.23;;;2.13;;
14613;SDS011;7393;51.446;6.800;2023-09-19T11:00:28;6.30;;;2.00;;
14613;SDS011;7393;51.446;6.800;2023-09-19T11:03:18;7.83;;;2.33;;
14613;SDS011;7393;51.446;6.800;2023-09-19T11:08:52;7.77;;;2.47;;
14613;SDS011;7393;51.446;6.800;2023-09-19T11:11:40;10.17;;;2.77;;
14613;SDS011;7393;51.446;6.800;2023-09-19T11:14:28;8.37;;;2.60;;
14613;SDS011;7393;51.446;6.800;2023-09-19T11:23:18;6.33;;;2.37;;
14613;SDS011;7393;51.446;6.800;2023-09-19T11:25:51;5.57;;;2.13;;
14613;SDS011;7393;51.446;6.800;2023-09-19T11:28:32;12.60;;;2.70;;
14613;SDS011;7393;51.446;6.800;2023-09-19T11:40:05;5.80;;;2.30;;
14613;SDS011;7393;51.446;6.800;2023-09-19T11:42:42;4.80;;;2.17;;
14613;SDS011;7393;51.446;6.800;2023-09-19T11:48:23;7.70;;;2.17;;
14613;SDS011;7393;51.446;6.800;2023-09-19T11:50:52;7.27;;;2.23;;
14613;SDS011;7393;51.446;6.800;2023-09-19T11:53:19;6.20;;;1.90;;
14613;SDS011;7393;51.446;6.800;2023-09-19T11:55:47;7.70;;;2.03;;
14613;SDS011;7393;51.446;6.800;2023-09-19T11:58:16;5.67;;;2.30;;
14613;SDS011;7393;51.446;6.800;2023-09-19T12:00:43;13.53;;;2.60;;
14613;SDS011;7393;51.446;6.800;2023-09-19T12:03:12;5.70;;;2.43;;
14613;SDS011;7393;51.446;6.800;2023-09-19T12:05:39;7.03;;;2.10;;
14613;SDS011;7393;51.446;6.800;2023-09-19T12:08:07;12.43;;;2.50;;
14613;SDS011;7393;51.446;6.800;2023-09-19T12:10:43;5.17;;;2.10;;
14613;SDS011;7393;51.446;6.800;2023-09-19T12:13:16;9.37;;;2.50;;
14613;SDS011;7393;51.446;6.800;2023-09-19T12:15:43;8.80;;;2.67;;
14613;SDS011;7393;51.446;6.800;2023-09-19T12:18:25;7.50;;;2.80;;
14613;SDS011;7393;51.446;6.800;2023-09-19T12:20:53;9.63;;;2.40;;
14613;SDS011;7393;51.446;6.800;2023-09-19T12:23:20;9.20;;;2.63;;
14613;SDS011;7393;51.446;6.800;2023-09-19T12:25:47;8.57;;;2.50;;
14613;SDS011;7393;51.446;6.800;2023-09-19T12:28:18;13.13;;;2.73;;
14613;SDS011;7393;51.446;6.800;2023-09-19T12:30:46;9.50;;;2.63;;
14613;SDS011;7393;51.446;6.800;2023-09-19T12:33:16;10.53;;;3.10;;
14613;SDS011;7393;51.446;6.800;2023-09-19T12:35:45;11.30;;;2.70;;
14613;SDS011;7393;51.446;6.800;2023-09-19T12:38:21;6.33;;;2.20;;
14613;SDS011;7393;51.446;6.800;2023-09-19T12:40:52;9.17;;;2.53;;
14613;SDS011;7393;51.446;6.800;2023-09-19T12:43:22;6.20;;;2.20;;
14613;SDS011;7393;51.446;6.800;2023-09-19T12:45:49;8.00;;;2.23;;
14613;SDS011;7393;51.446;6.800;2023-09-19T12:48:18;8.20;;;1.90;;
14613;SDS011;7393;51.446;6.800;2023-09-19T12:50:59;9.00;;;2.33;;
14613;SDS011;7393;51.446;6.800;2023-09-19T12:53:31;7.47;;;2.47;;
14613;SDS011;7393;51.446;6.800;2023-09-19T12:56:01;8.70;;;2.57;;
14613;SDS011;7393;51.446;6.800;2023-09-19T12:58:32;7.57;;;2.07;;
14613;SDS011;7393;51.446;6.800;2023-09-19T13:01:00;7.70;;;2.53;;
14613;SDS011;7393;51.446;6.800;2023-09-19T13:03:28;8.97;;;2.60;;
14613;SDS011;7393;51.446;6.800;2023-09-19T13:05:57;7.13;;;3.00;;
14613;SDS011;7393;51.446;6.800;2023-09-19T13:08:26;4.67;;;2.13;;
14613;SDS011;7393;51.446;6.800;2023-09-19T13:11:02;5.43;;;2.27;;
14613;SDS011;7393;51.446;6.800;2023-09-19T13:13:36;5.97;;;2.37;;
14613;SDS011;7393;51.446;6.800;2023-09-19T13:16:04;6.93;;;1.87;;
14613;SDS011;7393;51.446;6.800;2023-09-19T13:18:46;4.43;;;1.80;;
14613;SDS011;7393;51.446;6.800;2023-09-19T13:21:16;7.10;;;1.97;;
14613;SDS011;7393;51.446;6.800;2023-09-19T13:23:50;7.83;;;2.10;;
14613;SDS011;7393;51.446;6.800;2023-09-19T13:26:17;5.10;;;2.07;;
14613;SDS011;7393;51.446;6.800;2023-09-19T13:28:46;7.43;;;2.80;;
14613;SDS011;7393;51.446;6.800;2023-09-19T13:31:14;4.90;;;2.30;;
14613;SDS011;7393;51.446;6.800;2023-09-19T13:33:44;5.13;;;2.13;;
14613;SDS011;7393;51.446;6.800;2023-09-19T13:36:11;7.53;;;2.40;;
14613;SDS011;7393;51.446;6.800;2023-09-19T13:38:39;6.17;;;3.00;;
14613;SDS011;7393;51.446;6.800;2023-09-19T13:41:07;8.63;;;3.20;;
14613;SDS011;7393;51.446;6.800;2023-09-19T13:43:35;7.77;;;3.07;;
14613;SDS011;7393;51.446;6.800;2023-09-19T13:46:03;5.17;;;1.93;;
14613;SDS011;7393;51.446;6.800;2023-09-19T13:48:32;11.00;;;2.60;;
14613;SDS011;7393;51.446;6.800;2023-09-19T13:51:00;6.43;;;2.60;;
14613;SDS011;7393;51.446;6.800;2023-09-19T13:53:28;3.67;;;1.77;;
14613;SDS011;7393;51.446;6.800;2023-09-19T13:55:54;7.23;;;2.00;;
14613;SDS011;7393;51.446;6.800;2023-09-19T13:58:21;6.67;;;2.17;;
14613;SDS011;7393;51.446;6.800;2023-09-19T14:00:49;3.20;;;1.47;;
14613;SDS011;7393;51.446;6.800;2023-09-19T14:03:17;8.40;;;1.83;;
14613;SDS011;7393;51.446;6.800;2023-09-19T14:05:45;4.00;;;1.40;;
14613;SDS011;7393;51.446;6.800;2023-09-19T14:08:13;4.70;;;1.40;;
14613;SDS011;7393;51.446;6.800;2023-09-19T14:10:39;4.93;;;1.50;;
14613;SDS011;7393;51.446;6.800;2023-09-19T14:13:06;4.67;;;1.50;;
14613;SDS011;7393;51.446;6.800;2023-09-19T14:15:36;2.70;;;1.30;;
14613;SDS011;7393;51.446;6.800;2023-09-19T14:18:04;5.13;;;2.07;;
14613;SDS011;7393;51.446;6.800;2023-09-19T14:20:32;2.97;;;1.33;;
14613;SDS011;7393;51.446;6.800;2023-09-19T14:22:59;3.77;;;2.43;;
14613;SDS011;7393;51.446;6.800;2023-09-19T14:25:26;2.93;;;1.73;;
14613;SDS011;7393;51.446;6.800;2023-09-19T14:27:54;7.50;;;1.30;;
14613;SDS011;7393;51.446;6.800;2023-09-19T14:30:21;3.57;;;1.00;;
14613;SDS011;7393;51.446;6.800;2023-09-19T14:32:48;8.50;;;1.33;;
14613;SDS011;7393;51.446;6.800;2023-09-19T14:35:16;1.90;;;1.03;;
14613;SDS011;7393;51.446;6.800;2023-09-19T14:37:44;2.33;;;1.03;;
14613;SDS011;7393;51.446;6.800;2023-09-19T14:40:11;2.90;;;1.20;;
14613;SDS011;7393;51.446;6.800;2023-09-19T14:42:40;2.37;;;1.30;;
14613;SDS011;7393;51.446;6.800;2023-09-19T14:45:09;3.80;;;1.20;;
14613;SDS011;7393;51.446;6.800;2023-09-19T14:47:36;3.60;;;1.10;;
14613;SDS011;7393;51.446;6.800;2023-09-19T14:50:04;8.27;;;1.70;;
14613;SDS011;7393;51.446;6.800;2023-09-19T14:52:31;4.17;;;1.23;;
14613;SDS011;7393;51.446;6.800;2023-09-19T14:55:00;5.77;;;1.33;;
14613;SDS011;7393;51.446;6.800;2023-09-19T14:57:27;4.10;;;1.30;;
14613;SDS011;7393;51.446;6.800;2023-09-19T14:59:54;4.23;;;1.30;;
14613;SDS011;7393;51.446;6.800;2023-09-19T15:02:21;3.23;;;1.37;;
14613;SDS011;7393;51.446;6.800;2023-09-19T15:04:48;5.17;;;1.53;;
14613;SDS011;7393;51.446;6.800;2023-09-19T15:07:15;4.70;;;1.50;;
14613;SDS011;7393;51.446;6.800;2023-09-19T15:09:42;6.77;;;2.27;;
14613;SDS011;7393;51.446;6.800;2023-09-19T15:12:12;5.17;;;3.67;;
14613;SDS011;7393;51.446;6.800;2023-09-19T15:14:40;5.00;;;2.03;;
14613;SDS011;7393;51.446;6.800;2023-09-19T15:17:07;4.63;;;1.93;;
14613;SDS011;7393;51.446;6.800;2023-09-19T15:19:34;2.73;;;1.60;;
14613;SDS011;7393;51.446;6.800;2023-09-19T15:22:02;4.43;;;1.80;;
14613;SDS011;7393;51.446;6.800;2023-09-19T15:24:30;6.33;;;1.77;;
14613;SDS011;7393;51.446;6.800;2023-09-19T15:26:57;4.43;;;1.70;;
14613;SDS011;7393;51.446;6.800;2023-09-19T15:29:25;3.47;;;1.33;;
14613;SDS011;7393;51.446;6.800;2023-09-19T15:31:52;3.20;;;1.43;;
14613;SDS011;7393;51.446;6.800;2023-09-19T15:34:22;6.50;;;1.50;;
14613;SDS011;7393;51.446;6.800;2023-09-19T15:36:49;2.57;;;1.33;;